Time;durP1;ratioP1;P1;durP2;ratioP2;P2;SDS_P1;SDS_P2;PMS_P1;PMS_P2;Temp;Humidity;BMP_temperature;BMP_pressure;BME280_temperature;BME280_humidity;BME280_pressure;Samples;Min_cycle;Max_cycle;Signal;HPM_P1;HPM_P2
2023/08/08 00:00:02;;;;;;;2.83;1.52;;;;;;;;;;5841581;28;20049;-81
2023/08/08 00:02:52;;;;;;;1.80;1.02;;;;;;;;;;5818952;28;20039;-83
2023/08/08 00:05:43;;;;;;;7.13;2.13;;;;;;;;;;5796272;28;20047;-81
2023/08/08 00:08:34;;;;;;;1.33;1.23;;;;;;;;;;5796023;28;20053;-82
2023/08/08 00:11:25;;;;;;;4.35;1.83;;;;;;;;;;5796065;28;20169;-81
2023/08/08 00:14:16;;;;;;;2.50;1.10;;;;;;;;;;5795831;28;20077;-81
2023/08/08 00:17:07;;;;;;;0.60;0.60;;;;;;;;;;5795940;28;20046;-83
2023/08/08 00:19:58;;;;;;;1.58;1.02;;;;;;;;;;5796317;28;20047;-80
2023/08/08 00:22:49;;;;;;;3.95;0.93;;;;;;;;;;5795898;28;20054;-81
2023/08/08 00:25:39;;;;;;;1.38;0.95;;;;;;;;;;5795963;28;20070;-81
2023/08/08 00:28:30;;;;;;;0.80;0.68;;;;;;;;;;5795843;28;20051;-81
2023/08/08 00:31:21;;;;;;;0.82;0.50;;;;;;;;;;5795690;28;20055;-81
2023/08/08 00:34:12;;;;;;;0.43;0.30;;;;;;;;;;5795608;28;20070;-81
2023/08/08 00:37:03;;;;;;;6.70;0.55;;;;;;;;;;5795764;28;20049;-81
2023/08/08 00:39:53;;;;;;;0.40;0.40;;;;;;;;;;5795993;28;20043;-80
2023/08/08 00:42:45;;;;;;;1.77;0.50;;;;;;;;;;5795461;28;20046;-81
2023/08/08 00:45:36;;;;;;;1.10;0.45;;;;;;;;;;5795697;28;20053;-81
2023/08/08 00:48:27;;;;;;;0.38;0.38;;;;;;;;;;5795482;28;20047;-81
2023/08/08 00:51:19;;;;;;;2.70;0.55;;;;;;;;;;5795554;28;20051;-81
2023/08/08 00:54:10;;;;;;;6.30;0.47;;;;;;;;;;5794338;28;20050;-81
2023/08/08 00:57:01;;;;;;;0.30;0.30;;;;;;;;;;5795662;28;20082;-81
2023/08/08 00:59:53;;;;;;;0.52;0.50;;;;;;;;;;5795818;28;20047;-80
2023/08/08 01:02:43;;;;;;;0.47;0.38;;;;;;;;;;5795872;28;20053;-79
2023/08/08 01:06:01;;;;;;;0.17;0.17;;;;;;;;;;5799598;28;20390;-81
2023/08/08 01:09:00;;;;;;;0.20;0.20;;;;;;;;;;5822620;28;20038;-80
2023/08/08 01:11:52;;;;;;;3.85;0.95;;;;;;;;;;5822520;28;20054;-82
2023/08/08 01:14:44;;;;;;;0.98;0.73;;;;;;;;;;5820810;28;20049;-80
2023/08/08 01:17:36;;;;;;;0.70;0.68;;;;;;;;;;5822028;28;20449;-80
2023/08/08 01:20:27;;;;;;;0.30;0.30;;;;;;;;;;5820570;28;20413;-80
2023/08/08 01:23:45;;;;;;;0.20;0.20;;;;;;;;;;5820537;28;20046;-80
2023/08/08 01:26:36;;;;;;;5.07;0.63;;;;;;;;;;5820694;28;20046;-80
2023/08/08 01:29:27;;;;;;;1.13;0.20;;;;;;;;;;5821809;28;20042;-80
2023/08/08 01:32:18;;;;;;;0.68;0.63;;;;;;;;;;5821847;28;20046;-80
2023/08/08 01:35:09;;;;;;;1.13;0.75;;;;;;;;;;5821637;28;20541;-80
2023/08/08 01:38:24;;;;;;;5.15;0.88;;;;;;;;;;5822148;28;20046;-80
2023/08/08 01:41:16;;;;;;;2.75;0.57;;;;;;;;;;5816652;28;20165;-80
2023/08/08 01:44:07;;;;;;;0.40;0.40;;;;;;;;;;5820146;28;20494;-80
2023/08/08 01:46:58;;;;;;;0.55;0.55;;;;;;;;;;5820382;28;20077;-81
2023/08/08 01:49:49;;;;;;;1.35;0.68;;;;;;;;;;5820097;28;20049;-80
2023/08/08 01:52:39;;;;;;;1.42;1.02;;;;;;;;;;5819714;28;20046;-81
2023/08/08 01:55:31;;;;;;;2.10;1.00;;;;;;;;;;5821461;28;20122;-80
2023/08/08 01:58:21;;;;;;;1.63;1.27;;;;;;;;;;5819671;28;20568;-80
2023/08/08 02:01:12;;;;;;;1.52;1.02;;;;;;;;;;5820810;28;20053;-80
2023/08/08 02:04:04;;;;;;;1.00;0.90;;;;;;;;;;5821203;28;20043;-80
2023/08/08 02:06:55;;;;;;;1.17;0.93;;;;;;;;;;5821558;28;20038;-81
2023/08/08 02:09:46;;;;;;;1.15;0.77;;;;;;;;;;5820907;28;20052;-80
2023/08/08 02:12:36;;;;;;;2.20;1.30;;;;;;;;;;5820738;28;20050;-80
2023/08/08 02:15:27;;;;;;;1.08;0.95;;;;;;;;;;5820167;28;20077;-80
2023/08/08 02:18:18;;;;;;;8.15;2.30;;;;;;;;;;5820610;28;20417;-81
2023/08/08 02:21:09;;;;;;;17.63;1.48;;;;;;;;;;5820835;28;20043;-80
2023/08/08 02:24:00;;;;;;;2.10;1.20;;;;;;;;;;5821087;28;20085;-80
2023/08/08 02:26:50;;;;;;;4.45;1.48;;;;;;;;;;5820476;28;20050;-81
2023/08/08 02:29:41;;;;;;;4.78;1.65;;;;;;;;;;5820442;28;20055;-80
2023/08/08 02:32:32;;;;;;;5.10;1.83;;;;;;;;;;5820362;28;20056;-80
2023/08/08 02:35:23;;;;;;;3.83;1.45;;;;;;;;;;5820529;28;20132;-80
2023/08/08 02:38:14;;;;;;;5.10;1.23;;;;;;;;;;5820202;28;20042;-80
2023/08/08 02:41:04;;;;;;;1.45;1.00;;;;;;;;;;5820493;28;20039;-80
2023/08/08 02:43:55;;;;;;;4.05;1.20;;;;;;;;;;5820616;28;20057;-79
2023/08/08 02:46:46;;;;;;;1.75;1.30;;;;;;;;;;5819929;28;20490;-80
2023/08/08 02:49:37;;;;;;;4.15;1.27;;;;;;;;;;5820095;28;20053;-80
2023/08/08 02:52:27;;;;;;;1.23;1.05;;;;;;;;;;5820199;28;20053;-80
2023/08/08 02:55:18;;;;;;;0.68;0.63;;;;;;;;;;5818463;28;20047;-80
2023/08/08 02:58:09;;;;;;;0.63;0.40;;;;;;;;;;5819882;28;20557;-80
2023/08/08 03:01:00;;;;;;;1.63;0.50;;;;;;;;;;5820114;28;20056;-81
2023/08/08 03:03:51;;;;;;;0.55;0.45;;;;;;;;;;5796912;28;20069;-79
2023/08/08 03:06:41;;;;;;;0.43;0.43;;;;;;;;;;5796115;28;20051;-80
2023/08/08 03:09:32;;;;;;;0.40;0.40;;;;;;;;;;5797084;28;20046;-79
2023/08/08 03:12:23;;;;;;;0.30;0.30;;;;;;;;;;5797059;28;20047;-84
2023/08/08 03:15:15;;;;;;;0.95;0.40;;;;;;;;;;5796844;28;20046;-84
2023/08/08 03:18:05;;;;;;;0.20;0.20;;;;;;;;;;5795478;28;20045;-84
2023/08/08 03:20:57;;;;;;;0.32;0.32;;;;;;;;;;5797164;28;20043;-85
2023/08/08 03:23:47;;;;;;;0.35;0.35;;;;;;;;;;5795268;28;20053;-83
2023/08/08 03:26:38;;;;;;;1.40;0.70;;;;;;;;;;5795861;28;20066;-85
2023/08/08 03:29:29;;;;;;;0.13;0.13;;;;;;;;;;5796747;28;20046;-83
2023/08/08 03:32:20;;;;;;;2.30;0.88;;;;;;;;;;5796696;28;20062;-84
2023/08/08 03:35:11;;;;;;;0.77;0.30;;;;;;;;;;5796569;28;20494;-82
2023/08/08 03:38:02;;;;;;;1.08;0.70;;;;;;;;;;5796312;28;20051;-85
2023/08/08 03:40:53;;;;;;;0.25;0.25;;;;;;;;;;5796697;28;20055;-84
2023/08/08 03:43:44;;;;;;;0.40;0.40;;;;;;;;;;5796455;28;20051;-84
2023/08/08 03:46:35;;;;;;;0.30;0.30;;;;;;;;;;5796239;28;20140;-84
2023/08/08 03:49:26;;;;;;;0.52;0.52;;;;;;;;;;5796463;28;20521;-84
2023/08/08 03:52:16;;;;;;;0.45;0.20;;;;;;;;;;5796204;28;20125;-84
2023/08/08 03:55:08;;;;;;;0.32;0.32;;;;;;;;;;5779088;28;20081;-84
2023/08/08 03:57:59;;;;;;;0.30;0.30;;;;;;;;;;5796525;28;20065;-85
2023/08/08 04:00:50;;;;;;;0.45;0.25;;;;;;;;;;5796081;28;20101;-83
2023/08/08 04:03:40;;;;;;;2.67;0.52;;;;;;;;;;5796063;28;20050;-84
2023/08/08 04:06:32;;;;;;;0.47;0.43;;;;;;;;;;5796108;28;20050;-83
2023/08/08 04:09:22;;;;;;;0.45;0.45;;;;;;;;;;5795908;28;20055;-84
2023/08/08 04:12:13;;;;;;;1.13;0.70;;;;;;;;;;5796190;28;20402;-83
2023/08/08 04:15:04;;;;;;;0.32;0.32;;;;;;;;;;5796324;28;20177;-84
2023/08/08 04:17:56;;;;;;;0.40;0.40;;;;;;;;;;5796131;28;20382;-84
2023/08/08 04:20:48;;;;;;;1.95;0.57;;;;;;;;;;5795734;28;20087;-84
2023/08/08 04:23:39;;;;;;;4.07;0.50;;;;;;;;;;5795610;28;20161;-85
2023/08/08 04:26:29;;;;;;;0.50;0.50;;;;;;;;;;5795690;28;20398;-84
2023/08/08 04:29:20;;;;;;;0.15;0.15;;;;;;;;;;5795638;28;20233;-84
2023/08/08 04:32:11;;;;;;;7.97;1.35;;;;;;;;;;5795793;28;20057;-84
2023/08/08 04:35:02;;;;;;;0.40;0.40;;;;;;;;;;5796148;28;20043;-85
2023/08/08 04:37:53;;;;;;;36.42;1.02;;;;;;;;;;5819350;28;20042;-86
2023/08/08 04:40:44;;;;;;;0.50;0.50;;;;;;;;;;5822753;28;20054;-85
2023/08/08 04:43:35;;;;;;;0.82;0.52;;;;;;;;;;5821308;28;20049;-85
2023/08/08 04:46:25;;;;;;;0.32;0.32;;;;;;;;;;5822640;28;20042;-83
2023/08/08 04:49:16;;;;;;;6.93;1.20;;;;;;;;;;5822458;28;20043;-85
2023/08/08 04:52:07;;;;;;;1.73;0.70;;;;;;;;;;5822637;28;20458;-84
2023/08/08 04:54:58;;;;;;;1.55;0.93;;;;;;;;;;5823377;28;20505;-84
2023/08/08 04:57:49;;;;;;;0.35;0.35;;;;;;;;;;5822442;28;20046;-83
2023/08/08 05:00:40;;;;;;;0.28;0.28;;;;;;;;;;5822433;28;20057;-83
2023/08/08 05:03:31;;;;;;;0.50;0.50;;;;;;;;;;5822633;28;20466;-83
2023/08/08 05:06:22;;;;;;;1.13;0.75;;;;;;;;;;5822031;28;20572;-84
2023/08/08 05:09:13;;;;;;;0.68;0.50;;;;;;;;;;5822227;28;20043;-83
2023/08/08 05:12:04;;;;;;;0.63;0.63;;;;;;;;;;5821017;28;20158;-83
2023/08/08 05:14:56;;;;;;;0.88;0.63;;;;;;;;;;5823063;28;20090;-83
2023/08/08 05:17:46;;;;;;;0.95;0.77;;;;;;;;;;5822174;28;20042;-83
2023/08/08 05:20:37;;;;;;;0.63;0.50;;;;;;;;;;5821994;28;20038;-83
2023/08/08 05:23:28;;;;;;;0.65;0.65;;;;;;;;;;5821879;28;20052;-83
2023/08/08 05:26:19;;;;;;;0.40;0.40;;;;;;;;;;5821787;28;20420;-83
2023/08/08 05:29:10;;;;;;;0.98;0.70;;;;;;;;;;5820500;28;20046;-83
2023/08/08 05:32:01;;;;;;;0.20;0.20;;;;;;;;;;5822323;28;20053;-82
2023/08/08 05:34:52;;;;;;;0.63;0.63;;;;;;;;;;5822069;28;20045;-82
2023/08/08 05:37:43;;;;;;;1.45;0.50;;;;;;;;;;5821481;28;20053;-82
2023/08/08 05:40:36;;;;;;;7.60;1.35;;;;;;;;;;5821541;28;20116;-84
2023/08/08 05:43:27;;;;;;;0.98;0.82;;;;;;;;;;5820055;28;20056;-83
2023/08/08 05:46:20;;;;;;;3.55;1.00;;;;;;;;;;5821488;28;20046;-83
2023/08/08 05:49:11;;;;;;;1.23;0.80;;;;;;;;;;5820662;28;20052;-83
2023/08/08 05:52:02;;;;;;;1.25;0.70;;;;;;;;;;5821583;28;20440;-84
2023/08/08 05:54:53;;;;;;;0.57;0.57;;;;;;;;;;5821626;28;20420;-84
2023/08/08 05:57:44;;;;;;;0.40;0.30;;;;;;;;;;5821220;28;20391;-83
2023/08/08 06:00:35;;;;;;;2.22;0.65;;;;;;;;;;5821141;28;20046;-82
2023/08/08 06:03:26;;;;;;;0.50;0.50;;;;;;;;;;5820912;28;20535;-81
2023/08/08 06:06:18;;;;;;;0.90;0.52;;;;;;;;;;5821047;28;20046;-82
2023/08/08 06:09:09;;;;;;;0.35;0.35;;;;;;;;;;5819600;28;20042;-82
2023/08/08 06:12:00;;;;;;;0.20;0.20;;;;;;;;;;5821220;28;20133;-82
2023/08/08 06:14:51;;;;;;;1.65;0.50;;;;;;;;;;5821133;28;20046;-83
2023/08/08 06:17:42;;;;;;;1.75;0.90;;;;;;;;;;5819468;28;20051;-81
2023/08/08 06:20:33;;;;;;;1.33;0.77;;;;;;;;;;5820614;28;20053;-82
2023/08/08 06:23:23;;;;;;;4.30;1.15;;;;;;;;;;5819623;28;20096;-82
2023/08/08 06:26:14;;;;;;;1.80;0.80;;;;;;;;;;5820493;28;20056;-84
2023/08/08 06:29:05;;;;;;;0.40;0.40;;;;;;;;;;5820827;28;20042;-82
2023/08/08 06:31:56;;;;;;;3.42;0.40;;;;;;;;;;5819306;28;20054;-82
2023/08/08 06:34:47;;;;;;;10.30;1.33;;;;;;;;;;5820053;28;20493;-84
2023/08/08 06:37:38;;;;;;;0.73;0.47;;;;;;;;;;5820080;28;20054;-82
2023/08/08 06:40:29;;;;;;;0.70;0.38;;;;;;;;;;5820359;28;20092;-81
2023/08/08 06:43:20;;;;;;;10.85;1.20;;;;;;;;;;5819985;28;20054;-81
2023/08/08 06:46:11;;;;;;;0.70;0.60;;;;;;;;;;5820281;28;20056;-83
2023/08/08 06:49:01;;;;;;;2.42;1.85;;;;;;;;;;5819961;28;20048;-83
2023/08/08 06:51:52;;;;;;;4.25;0.90;;;;;;;;;;5819761;28;20400;-82
2023/08/08 06:54:44;;;;;;;1.17;0.75;;;;;;;;;;5819744;28;20055;-82
2023/08/08 06:57:35;;;;;;;1.30;0.95;;;;;;;;;;5819773;28;20046;-82
2023/08/08 07:00:27;;;;;;;1.63;1.20;;;;;;;;;;5819818;28;20051;-82
2023/08/08 07:03:18;;;;;;;0.60;0.35;;;;;;;;;;5819633;28;20080;-83
2023/08/08 07:06:10;;;;;;;2.60;0.70;;;;;;;;;;5819678;28;20145;-82
2023/08/08 07:09:01;;;;;;;0.60;0.57;;;;;;;;;;5819701;28;20050;-83
2023/08/08 07:11:51;;;;;;;2.20;1.08;;;;;;;;;;5820109;28;20413;-83
2023/08/08 07:14:42;;;;;;;1.33;0.43;;;;;;;;;;5819404;28;20154;-81
2023/08/08 07:17:33;;;;;;;0.73;0.70;;;;;;;;;;5819548;28;20043;-83
2023/08/08 07:20:24;;;;;;;1.75;1.08;;;;;;;;;;5819316;28;20038;-82
2023/08/08 07:23:16;;;;;;;1.77;1.30;;;;;;;;;;5819396;28;20050;-82
2023/08/08 07:26:07;;;;;;;1.02;0.75;;;;;;;;;;5819319;28;20177;-82
2023/08/08 07:28:58;;;;;;;4.88;1.67;;;;;;;;;;5819958;28;20053;-84
2023/08/08 07:31:49;;;;;;;1.80;0.73;;;;;;;;;;5819047;28;20069;-81
2023/08/08 07:34:39;;;;;;;0.63;0.55;;;;;;;;;;5819251;28;20057;-80
2023/08/08 07:37:30;;;;;;;0.30;0.30;;;;;;;;;;5819284;28;20500;-82
2023/08/08 07:40:21;;;;;;;1.00;0.50;;;;;;;;;;5818937;28;20057;-81
2023/08/08 07:43:12;;;;;;;1.85;0.82;;;;;;;;;;5819093;28;20053;-82
2023/08/08 07:46:03;;;;;;;3.13;1.08;;;;;;;;;;5819110;28;20042;-82
2023/08/08 07:48:54;;;;;;;1.77;0.63;;;;;;;;;;5819331;28;20050;-82
2023/08/08 07:51:44;;;;;;;2.17;0.68;;;;;;;;;;5818889;28;20381;-81
2023/08/08 07:54:35;;;;;;;1.55;1.00;;;;;;;;;;5818872;28;20047;-81
2023/08/08 07:57:34;;;;;;;1.50;1.00;;;;;;;;;;5818701;28;20046;-83
2023/08/08 08:00:26;;;;;;;1.33;0.70;;;;;;;;;;5818571;28;20090;-81
2023/08/08 08:03:17;;;;;;;2.25;1.08;;;;;;;;;;5818447;28;20125;-83
2023/08/08 08:06:08;;;;;;;3.55;1.55;;;;;;;;;;5818936;28;20516;-81
2023/08/08 08:08:58;;;;;;;5.22;0.80;;;;;;;;;;5818987;28;20050;-83
2023/08/08 08:11:50;;;;;;;1.20;0.65;;;;;;;;;;5818444;28;20225;-82
2023/08/08 08:14:41;;;;;;;2.63;0.93;;;;;;;;;;5817887;28;20050;-83
2023/08/08 08:17:32;;;;;;;0.20;0.20;;;;;;;;;;5819091;28;20052;-80
2023/08/08 08:20:23;;;;;;;3.15;0.50;;;;;;;;;;5818612;28;20442;-81
2023/08/08 08:23:14;;;;;;;0.43;0.43;;;;;;;;;;5818287;28;20042;-81
2023/08/08 08:26:05;;;;;;;1.92;0.88;;;;;;;;;;5818520;28;20046;-81
2023/08/08 08:28:56;;;;;;;0.50;0.50;;;;;;;;;;5818795;28;20119;-81
2023/08/08 08:31:47;;;;;;;2.03;0.90;;;;;;;;;;5818584;28;20054;-81
2023/08/08 08:34:37;;;;;;;0.60;0.50;;;;;;;;;;5818330;28;20082;-81
2023/08/08 08:37:28;;;;;;;2.03;1.13;;;;;;;;;;5818102;28;20046;-80
2023/08/08 08:40:19;;;;;;;2.88;0.90;;;;;;;;;;5818158;28;20042;-80
2023/08/08 08:43:10;;;;;;;0.70;0.30;;;;;;;;;;5816794;28;20050;-80
2023/08/08 08:46:03;;;;;;;0.30;0.30;;;;;;;;;;5816959;28;20413;-81
2023/08/08 08:48:56;;;;;;;1.55;0.32;;;;;;;;;;5816949;28;20129;-82
2023/08/08 08:51:47;;;;;;;2.03;0.77;;;;;;;;;;5818284;28;20413;-81
2023/08/08 08:54:38;;;;;;;0.98;0.65;;;;;;;;;;5816806;28;20516;-82
2023/08/08 08:57:29;;;;;;;5.72;0.80;;;;;;;;;;5818119;28;20053;-82
2023/08/08 09:00:20;;;;;;;11.20;1.23;;;;;;;;;;5817872;28;20057;-81
2023/08/08 09:03:10;;;;;;;0.25;0.20;;;;;;;;;;5818071;28;20055;-82
2023/08/08 09:06:04;;;;;;;0.52;0.30;;;;;;;;;;5800732;28;20054;-84
2023/08/08 09:08:55;;;;;;;0.75;0.50;;;;;;;;;;5817169;28;20405;-81
2023/08/08 09:11:56;;;;;;;0.32;0.32;;;;;;;;;;5818107;28;20462;-81
2023/08/08 09:14:50;;;;;;;1.13;0.90;;;;;;;;;;5817913;28;20054;-82
2023/08/08 09:17:45;;;;;;;0.77;0.47;;;;;;;;;;5817886;28;20442;-81
2023/08/08 09:20:39;;;;;;;0.10;0.10;;;;;;;;;;5817737;28;20046;-81
2023/08/08 09:23:30;;;;;;;1.75;0.52;;;;;;;;;;5817862;28;20612;-81
2023/08/08 09:26:21;;;;;;;0.90;0.40;;;;;;;;;;5820655;28;22542;-81
2023/08/08 09:29:14;;;;;;;0.73;0.43;;;;;;;;;;5821840;28;20057;-81
2023/08/08 09:32:06;;;;;;;0.32;0.32;;;;;;;;;;5821645;28;20046;-83
2023/08/08 09:34:58;;;;;;;0.93;0.52;;;;;;;;;;5821267;28;20046;-82
2023/08/08 09:37:49;;;;;;;1.45;0.52;;;;;;;;;;5820554;28;20050;-83
2023/08/08 09:40:40;;;;;;;0.68;0.60;;;;;;;;;;5821634;28;20081;-83
2023/08/08 09:43:31;;;;;;;1.55;0.82;;;;;;;;;;5821516;28;20392;-85
2023/08/08 09:46:22;;;;;;;0.93;0.68;;;;;;;;;;5821218;28;20092;-82
2023/08/08 09:49:14;;;;;;;0.50;0.50;;;;;;;;;;5821037;28;20058;-83
2023/08/08 09:52:05;;;;;;;2.75;0.68;;;;;;;;;;5820058;28;20050;-82
2023/08/08 09:54:57;;;;;;;16.25;0.95;;;;;;;;;;5821601;28;20047;-82
2023/08/08 09:57:48;;;;;;;2.75;0.25;;;;;;;;;;5821384;28;20054;-82
2023/08/08 10:00:41;;;;;;;0.35;0.35;;;;;;;;;;5819905;28;20057;-82
2023/08/08 10:03:32;;;;;;;0.88;0.70;;;;;;;;;;5803900;28;20057;-85
2023/08/08 10:06:23;;;;;;;0.77;0.75;;;;;;;;;;5820605;28;20046;-83
2023/08/08 10:09:16;;;;;;;0.75;0.60;;;;;;;;;;5821062;28;20513;-83
2023/08/08 10:12:08;;;;;;;0.10;0.10;;;;;;;;;;5820848;28;20065;-83
2023/08/08 10:14:59;;;;;;;0.55;0.40;;;;;;;;;;5821579;28;20063;-83
2023/08/08 10:17:55;;;;;;;1.25;1.15;;;;;;;;;;5819445;28;20050;-84
2023/08/08 10:20:50;;;;;;;5.55;1.55;;;;;;;;;;5820662;28;20085;-84
2023/08/08 10:23:41;;;;;;;3.85;1.73;;;;;;;;;;5820416;28;20454;-83
2023/08/08 10:26:33;;;;;;;1.35;1.23;;;;;;;;;;5820909;28;20057;-83
2023/08/08 10:29:26;;;;;;;4.72;1.92;;;;;;;;;;5819279;28;20501;-84
2023/08/08 10:32:25;;;;;;;5.80;1.75;;;;;;;;;;5819322;28;20494;-84
2023/08/08 10:35:16;;;;;;;2.40;1.48;;;;;;;;;;5819006;28;20051;-84
2023/08/08 10:38:10;;;;;;;4.15;1.98;;;;;;;;;;5820364;28;20408;-83
2023/08/08 10:41:02;;;;;;;1.33;1.08;;;;;;;;;;5820239;28;20042;-86
2023/08/08 10:43:57;;;;;;;4.40;1.65;;;;;;;;;;5819298;28;20058;-84
2023/08/08 10:46:50;;;;;;;1.88;1.25;;;;;;;;;;5819982;28;20053;-84
2023/08/08 10:49:42;;;;;;;3.97;1.88;;;;;;;;;;5818960;28;20054;-83
2023/08/08 10:52:44;;;;;;;1.58;1.20;;;;;;;;;;5818597;28;20446;-84
2023/08/08 10:55:37;;;;;;;1.00;0.90;;;;;;;;;;5818866;28;20051;-84
2023/08/08 10:58:40;;;;;;;1.10;0.93;;;;;;;;;;5818456;28;20042;-83
2023/08/08 11:01:31;;;;;;;2.30;1.00;;;;;;;;;;5819942;28;20393;-83
2023/08/08 11:04:25;;;;;;;1.02;0.63;;;;;;;;;;5819677;28;20046;-83
2023/08/08 11:07:16;;;;;;;2.40;1.30;;;;;;;;;;5818291;28;20125;-83
2023/08/08 11:10:08;;;;;;;0.68;0.68;;;;;;;;;;5819256;28;20051;-84
2023/08/08 11:13:05;;;;;;;0.63;0.47;;;;;;;;;;5819660;28;20415;-86
2023/08/08 11:15:56;;;;;;;1.05;0.93;;;;;;;;;;5818190;28;20554;-85
2023/08/08 11:18:47;;;;;;;2.72;0.70;;;;;;;;;;5817937;28;20129;-84
2023/08/08 11:21:42;;;;;;;27.67;1.98;;;;;;;;;;5819147;28;20129;-84
2023/08/08 11:24:35;;;;;;;9.35;1.63;;;;;;;;;;5819085;28;20421;-86
2023/08/08 11:27:26;;;;;;;0.88;0.47;;;;;;;;;;5802150;28;20511;-86
2023/08/08 11:30:22;;;;;;;0.47;0.47;;;;;;;;;;5819192;28;20046;-85
2023/08/08 11:33:15;;;;;;;2.28;1.42;;;;;;;;;;5819200;28;20408;-85
2023/08/08 11:36:07;;;;;;;4.65;1.50;;;;;;;;;;5818958;28;20054;-85
2023/08/08 11:39:07;;;;;;;1.25;1.13;;;;;;;;;;5819555;28;20116;-85
2023/08/08 11:41:58;;;;;;;1.17;1.08;;;;;;;;;;5802518;28;20070;-84
2023/08/08 11:44:50;;;;;;;3.35;1.95;;;;;;;;;;5796126;28;20047;-84
2023/08/08 11:47:41;;;;;;;1.48;1.38;;;;;;;;;;5794131;28;20047;-84
2023/08/08 11:50:32;;;;;;;1.00;0.90;;;;;;;;;;5796497;28;20062;-84
2023/08/08 11:53:23;;;;;;;1.10;1.00;;;;;;;;;;5796137;28;20081;-84
2023/08/08 11:56:14;;;;;;;1.02;0.93;;;;;;;;;;5796203;28;20589;-84
2023/08/08 11:59:05;;;;;;;1.45;1.35;;;;;;;;;;5796188;28;20057;-84
2023/08/08 12:01:56;;;;;;;3.60;1.85;;;;;;;;;;5827534;28;20043;-84
2023/08/08 12:04:47;;;;;;;2.47;0.93;;;;;;;;;;5795873;28;20517;-83
2023/08/08 12:07:41;;;;;;;3.88;2.03;;;;;;;;;;5795920;28;20046;-83
2023/08/08 12:10:32;;;;;;;7.80;2.65;;;;;;;;;;5795053;28;20050;-83
2023/08/08 12:13:26;;;;;;;4.13;2.28;;;;;;;;;;5795947;28;20057;-84
2023/08/08 12:16:17;;;;;;;2.17;1.50;;;;;;;;;;5796083;28;20051;-83
2023/08/08 12:19:14;;;;;;;1.77;1.10;;;;;;;;;;5795969;28;20054;-81
2023/08/08 12:22:05;;;;;;;0.63;0.63;;;;;;;;;;5796037;28;20039;-82
2023/08/08 12:24:56;;;;;;;0.20;0.20;;;;;;;;;;5796247;28;20043;-83
2023/08/08 12:27:47;;;;;;;1.05;0.95;;;;;;;;;;5792454;28;20043;-83
2023/08/08 12:30:40;;;;;;;1.17;0.60;;;;;;;;;;5792229;28;20402;-83
2023/08/08 12:33:31;;;;;;;2.10;0.68;;;;;;;;;;5793637;28;20491;-82
2023/08/08 12:36:22;;;;;;;0.63;0.30;;;;;;;;;;5794148;28;20509;-81
2023/08/08 12:39:13;;;;;;;0.80;0.50;;;;;;;;;;5794319;28;20498;-82
2023/08/08 12:42:04;;;;;;;0.70;0.40;;;;;;;;;;5794680;28;20074;-81
2023/08/08 12:44:55;;;;;;;0.22;0.22;;;;;;;;;;5795311;28;20502;-82
2023/08/08 12:47:46;;;;;;;3.40;0.40;;;;;;;;;;5795560;28;20038;-81
2023/08/08 12:50:37;;;;;;;2.25;0.45;;;;;;;;;;5794564;28;20039;-80
2023/08/08 12:53:28;;;;;;;1.70;0.63;;;;;;;;;;5795500;28;20046;-81
2023/08/08 12:56:19;;;;;;;1.40;0.22;;;;;;;;;;5795785;28;20055;-81
2023/08/08 12:59:09;;;;;;;0.93;0.40;;;;;;;;;;5797136;28;20047;-80
2023/08/08 13:02:00;;;;;;;0.25;0.20;;;;;;;;;;5800130;28;20061;-81
2023/08/08 13:04:51;;;;;;;0.50;0.22;;;;;;;;;;5822329;28;20038;-81
2023/08/08 13:07:42;;;;;;;0.35;0.28;;;;;;;;;;5822268;28;20046;-81
2023/08/08 13:10:33;;;;;;;0.63;0.43;;;;;;;;;;5822384;28;20047;-82
2023/08/08 13:13:26;;;;;;;2.45;0.50;;;;;;;;;;5822409;28;20046;-82
2023/08/08 13:16:16;;;;;;;0.20;0.10;;;;;;;;;;5822239;28;20046;-82
2023/08/08 13:19:07;;;;;;;0.60;0.30;;;;;;;;;;5822232;28;20089;-82
2023/08/08 13:21:59;;;;;;;27.27;0.60;;;;;;;;;;5822617;28;20045;-80
2023/08/08 13:24:50;;;;;;;0.25;0.22;;;;;;;;;;5822236;28;20060;-82
2023/08/08 13:27:42;;;;;;;0.77;0.77;;;;;;;;;;5821945;28;20357;-80
2023/08/08 13:30:34;;;;;;;1.13;0.90;;;;;;;;;;5821811;28;20437;-82
2023/08/08 13:33:24;;;;;;;0.93;0.28;;;;;;;;;;5821991;28;20405;-82
2023/08/08 13:36:15;;;;;;;0.63;0.30;;;;;;;;;;5822047;28;20122;-80
2023/08/08 13:39:09;;;;;;;0.98;0.82;;;;;;;;;;5821846;28;20524;-84
2023/08/08 13:42:00;;;;;;;0.63;0.25;;;;;;;;;;5822357;28;20158;-83
2023/08/08 13:44:52;;;;;;;0.70;0.47;;;;;;;;;;5821485;28;20058;-82
2023/08/08 13:47:45;;;;;;;0.00;0.00;;;;;;;;;;5821684;28;20074;-81
2023/08/08 13:50:36;;;;;;;0.60;0.38;;;;;;;;;;5821596;28;20133;-82
2023/08/08 13:53:26;;;;;;;0.32;0.30;;;;;;;;;;5821568;28;20038;-82
2023/08/08 13:56:18;;;;;;;1.08;0.30;;;;;;;;;;5821563;28;20050;-82
2023/08/08 13:59:08;;;;;;;0.17;0.17;;;;;;;;;;5821430;28;20054;-82
2023/08/08 14:01:59;;;;;;;0.00;0.00;;;;;;;;;;5821706;28;20129;-80
2023/08/08 14:04:51;;;;;;;0.47;0.38;;;;;;;;;;5821344;28;20043;-84
2023/08/08 14:07:42;;;;;;;2.63;0.52;;;;;;;;;;5821014;28;20045;-83
2023/08/08 14:10:33;;;;;;;1.55;0.88;;;;;;;;;;5820628;28;20047;-82
2023/08/08 14:13:24;;;;;;;0.55;0.15;;;;;;;;;;5821102;28;20632;-81
2023/08/08 14:16:15;;;;;;;0.10;0.10;;;;;;;;;;5820760;28;20524;-81
2023/08/08 14:19:06;;;;;;;0.63;0.40;;;;;;;;;;5819550;28;20513;-81
2023/08/08 14:21:56;;;;;;;0.10;0.10;;;;;;;;;;5821420;28;20413;-80
2023/08/08 14:24:47;;;;;;;1.88;0.20;;;;;;;;;;5820932;28;20450;-79
2023/08/08 14:27:38;;;;;;;2.28;0.20;;;;;;;;;;5820601;28;20042;-80
2023/08/08 14:30:30;;;;;;;0.20;0.20;;;;;;;;;;5819590;28;20120;-82
2023/08/08 14:33:21;;;;;;;0.47;0.10;;;;;;;;;;5820598;28;20127;-81
2023/08/08 14:36:12;;;;;;;0.10;0.10;;;;;;;;;;5819611;28;20472;-81
2023/08/08 14:39:03;;;;;;;0.22;0.22;;;;;;;;;;5820746;28;20053;-79
2023/08/08 14:41:56;;;;;;;0.20;0.20;;;;;;;;;;5820723;28;20394;-84
2023/08/08 14:44:47;;;;;;;0.52;0.43;;;;;;;;;;5818916;28;20061;-81
2023/08/08 14:47:38;;;;;;;0.22;0.22;;;;;;;;;;5820035;28;20429;-79
2023/08/08 14:50:28;;;;;;;0.65;0.38;;;;;;;;;;5820156;28;20046;-82
2023/08/08 14:53:19;;;;;;;1.80;0.68;;;;;;;;;;5819169;28;20042;-82
2023/08/08 14:56:10;;;;;;;1.45;0.80;;;;;;;;;;5820213;28;20054;-81
2023/08/08 14:59:01;;;;;;;0.40;0.22;;;;;;;;;;5820246;28;20068;-81
2023/08/08 15:01:52;;;;;;;1.80;0.47;;;;;;;;;;5820223;28;20054;-81
2023/08/08 15:04:43;;;;;;;1.08;0.70;;;;;;;;;;5819873;28;20398;-83
2023/08/08 15:07:34;;;;;;;0.10;0.10;;;;;;;;;;5820060;28;20507;-81
2023/08/08 15:10:25;;;;;;;0.50;0.38;;;;;;;;;;5819888;28;20347;-80
2023/08/08 15:13:16;;;;;;;0.28;0.25;;;;;;;;;;5819679;28;20113;-81
2023/08/08 15:16:06;;;;;;;0.08;0.03;;;;;;;;;;5819652;28;20185;-79
2023/08/08 15:18:57;;;;;;;1.35;0.35;;;;;;;;;;5820179;28;20157;-83
2023/08/08 15:21:48;;;;;;;0.35;0.35;;;;;;;;;;5819825;28;20485;-80
2023/08/08 15:24:39;;;;;;;2.38;0.95;;;;;;;;;;5819368;28;20057;-81
2023/08/08 15:27:30;;;;;;;1.25;0.68;;;;;;;;;;5819725;28;20046;-80
2023/08/08 15:30:21;;;;;;;0.30;0.30;;;;;;;;;;5819397;28;20046;-81
2023/08/08 15:33:12;;;;;;;0.95;0.35;;;;;;;;;;5819462;28;20058;-82
2023/08/08 15:36:03;;;;;;;0.10;0.10;;;;;;;;;;5818638;28;20065;-80
2023/08/08 15:38:54;;;;;;;0.52;0.40;;;;;;;;;;5820014;28;20053;-79
2023/08/08 15:41:45;;;;;;;0.55;0.55;;;;;;;;;;5819623;28;20109;-82
2023/08/08 15:44:36;;;;;;;0.50;0.30;;;;;;;;;;5818949;28;20066;-79
2023/08/08 15:47:27;;;;;;;0.40;0.40;;;;;;;;;;5819216;28;20045;-79
2023/08/08 15:50:20;;;;;;;0.88;0.43;;;;;;;;;;5818597;28;20046;-81
2023/08/08 15:53:11;;;;;;;0.60;0.50;;;;;;;;;;5817532;28;20058;-82
2023/08/08 15:56:02;;;;;;;0.30;0.30;;;;;;;;;;5818769;28;20054;-80
2023/08/08 15:58:52;;;;;;;1.60;0.75;;;;;;;;;;5819623;28;20125;-81
2023/08/08 16:01:43;;;;;;;0.30;0.30;;;;;;;;;;5819247;28;20487;-81
2023/08/08 16:04:34;;;;;;;1.90;0.60;;;;;;;;;;5819093;28;20038;-81
2023/08/08 16:07:25;;;;;;;0.30;0.30;;;;;;;;;;5819320;28;20528;-79
2023/08/08 16:10:16;;;;;;;1.40;0.38;;;;;;;;;;5819456;28;20072;-79
2023/08/08 16:13:07;;;;;;;0.35;0.35;;;;;;;;;;5818960;28;20046;-80
2023/08/08 16:15:57;;;;;;;0.52;0.52;;;;;;;;;;5819120;28;20055;-80
2023/08/08 16:18:49;;;;;;;0.52;0.40;;;;;;;;;;5819286;28;20038;-79
2023/08/08 16:21:39;;;;;;;0.82;0.63;;;;;;;;;;5819131;28;20050;-78
2023/08/08 16:24:30;;;;;;;0.45;0.45;;;;;;;;;;5819095;28;20038;-81
2023/08/08 16:27:21;;;;;;;0.35;0.35;;;;;;;;;;5818885;28;20054;-80
2023/08/08 16:30:12;;;;;;;1.95;0.70;;;;;;;;;;5818909;28;20054;-81
2023/08/08 16:33:03;;;;;;;1.95;0.47;;;;;;;;;;5818611;28;20043;-78
2023/08/08 16:35:54;;;;;;;1.20;0.98;;;;;;;;;;5824057;28;20471;-80
2023/08/08 16:38:46;;;;;;;2.45;2.15;;;;;;;;;;5824317;28;20490;-78
2023/08/08 16:41:37;;;;;;;17.95;2.65;;;;;;;;;;5824940;28;20050;-79
2023/08/08 16:44:27;;;;;;;5.70;2.92;;;;;;;;;;5823832;28;20050;-80
2023/08/08 16:47:18;;;;;;;2.30;1.42;;;;;;;;;;5823241;28;20064;-80
2023/08/08 16:50:09;;;;;;;0.65;0.52;;;;;;;;;;5823203;28;20046;-80
2023/08/08 16:53:00;;;;;;;0.75;0.75;;;;;;;;;;5824010;28;20038;-81
2023/08/08 16:55:51;;;;;;;1.25;0.50;;;;;;;;;;5815686;28;20089;-81
2023/08/08 16:58:43;;;;;;;0.50;0.50;;;;;;;;;;5822973;28;20057;-80
2023/08/08 17:01:34;;;;;;;0.45;0.45;;;;;;;;;;5822092;28;20412;-81
2023/08/08 17:04:25;;;;;;;0.30;0.30;;;;;;;;;;5822981;28;20469;-82
2023/08/08 17:07:15;;;;;;;0.60;0.60;;;;;;;;;;5822745;28;20043;-80